createdAt,value
2023-05-06T00:00:02.387Z,100.00
2023-05-06T00:03:13.263Z,100.00
2023-05-06T00:06:14.974Z,100.00
2023-05-06T00:09:16.629Z,100.00
2023-05-06T00:12:18.171Z,100.00
2023-05-06T00:15:19.660Z,100.00
2023-05-06T00:18:22.798Z,100.00
2023-05-06T00:21:24.254Z,100.00
2023-05-06T00:24:25.758Z,100.00
2023-05-06T00:27:27.284Z,100.00
2023-05-06T00:30:29.442Z,100.00
2023-05-06T00:33:30.949Z,100.00
2023-05-06T00:36:32.644Z,100.00
2023-05-06T00:39:34.614Z,100.00
2023-05-06T00:42:36.456Z,100.00
2023-05-06T00:45:38.715Z,100.00
2023-05-06T00:48:40.636Z,100.00
2023-05-06T00:51:42.278Z,100.00
2023-05-06T00:54:43.792Z,100.00
2023-05-06T00:57:45.450Z,100.00
2023-05-06T01:00:47.270Z,100.00
2023-05-06T01:03:48.961Z,100.00
2023-05-06T01:07:18.029Z,100.00
2023-05-06T01:10:53.407Z,100.00
2023-05-06T01:14:11.023Z,100.00
2023-05-06T01:17:16.932Z,100.00
2023-05-06T01:20:21.234Z,100.00
2023-05-06T01:23:22.826Z,100.00
2023-05-06T01:26:26.341Z,100.00
2023-05-06T01:29:28.226Z,100.00
2023-05-06T01:32:48.465Z,100.00
2023-05-06T01:35:56.518Z,100.00
2023-05-06T01:39:12.153Z,100.00
2023-05-06T01:42:13.939Z,100.00
2023-05-06T01:45:17.827Z,100.00
2023-05-06T01:48:24.482Z,100.00
2023-05-06T01:51:25.962Z,100.00
2023-05-06T01:54:27.611Z,100.00
2023-05-06T01:57:29.033Z,100.00
2023-05-06T02:00:30.696Z,100.00
2023-05-06T02:03:32.251Z,100.00
2023-05-06T02:06:33.881Z,100.00
2023-05-06T02:09:35.393Z,100.00
2023-05-06T02:12:38.072Z,100.00
2023-05-06T02:15:39.632Z,100.00
2023-05-06T02:18:44.223Z,100.00
2023-05-06T02:21:46.114Z,100.00
2023-05-06T02:24:47.619Z,100.00
2023-05-06T02:27:49.119Z,100.00
2023-05-06T02:30:57.760Z,100.00
2023-05-06T02:33:59.290Z,100.00
2023-05-06T02:37:00.807Z,100.00
2023-05-06T02:40:02.386Z,100.00
2023-05-06T02:43:06.816Z,100.00
2023-05-06T02:46:08.956Z,100.00
2023-05-06T02:49:10.484Z,100.00
2023-05-06T02:52:11.928Z,100.00
2023-05-06T02:55:13.377Z,100.00
2023-05-06T02:58:14.901Z,100.00
2023-05-06T03:01:16.330Z,100.00
2023-05-06T03:04:18.421Z,100.00
2023-05-06T03:07:20.146Z,100.00
2023-05-06T03:10:21.720Z,100.00
2023-05-06T03:13:23.421Z,100.00
2023-05-06T03:16:25.392Z,100.00
2023-05-06T03:19:29.919Z,100.00
2023-05-06T03:22:32.308Z,100.00
2023-05-06T03:25:34.116Z,100.00
2023-05-06T03:28:35.654Z,100.00
2023-05-06T03:31:38.975Z,100.00
2023-05-06T03:34:40.724Z,100.00
2023-05-06T03:37:44.382Z,100.00
2023-05-06T03:40:46.130Z,100.00
2023-05-06T03:43:49.526Z,100.00
2023-05-06T03:46:53.963Z,100.00
2023-05-06T03:49:56.226Z,100.00
2023-05-06T03:52:57.873Z,100.00
2023-05-06T03:56:01.957Z,100.00
2023-05-06T03:59:05.276Z,100.00
2023-05-06T04:02:07.069Z,100.00
2023-05-06T04:05:11.347Z,100.00
2023-05-06T04:08:13.074Z,100.00
2023-05-06T04:11:14.997Z,100.00
2023-05-06T04:14:16.563Z,100.00
2023-05-06T04:17:18.606Z,100.00
2023-05-06T04:20:21.613Z,100.00
2023-05-06T04:23:23.712Z,100.00
2023-05-06T04:26:25.936Z,100.00
2023-05-06T04:29:27.487Z,100.00
2023-05-06T04:32:34.113Z,100.00
2023-05-06T04:35:37.685Z,100.00
2023-05-06T04:38:39.971Z,100.00
2023-05-06T04:41:41.839Z,100.00
2023-05-06T04:44:45.726Z,100.00
2023-05-06T04:47:47.569Z,100.00
2023-05-06T04:50:51.011Z,100.00
2023-05-06T04:53:52.806Z,100.00
2023-05-06T04:56:54.593Z,100.00
2023-05-06T04:59:56.176Z,100.00
2023-05-06T05:02:57.811Z,100.00
2023-05-06T05:05:59.422Z,100.00
2023-05-06T05:09:01.974Z,100.00
2023-05-06T05:12:05.762Z,100.00
2023-05-06T05:15:11.275Z,100.00
2023-05-06T05:18:13.279Z,100.00
2023-05-06T05:21:15.738Z,100.00
2023-05-06T05:24:17.451Z,100.00
2023-05-06T05:27:18.969Z,100.00
2023-05-06T05:30:21.140Z,100.00
2023-05-06T05:33:22.785Z,100.00
2023-05-06T05:36:25.386Z,100.00
2023-05-06T05:39:29.468Z,100.00
2023-05-06T05:42:33.700Z,100.00
2023-05-06T05:45:39.785Z,100.00
2023-05-06T05:48:43.668Z,100.00
2023-05-06T05:51:45.954Z,100.00
2023-05-06T05:54:50.738Z,100.00
2023-05-06T05:57:52.353Z,100.00
2023-05-06T06:00:56.154Z,100.00
2023-05-06T06:03:59.877Z,100.00
2023-05-06T06:07:04.519Z,100.00
2023-05-06T06:10:10.210Z,100.00
2023-05-06T06:13:11.914Z,100.00
2023-05-06T06:16:13.501Z,100.00
2023-05-06T06:19:15.931Z,100.00
2023-05-06T06:22:18.045Z,100.00
2023-05-06T06:25:21.412Z,100.00
2023-05-06T06:28:22.948Z,100.00
2023-05-06T06:31:24.545Z,100.00
2023-05-06T06:34:26.197Z,100.00
2023-05-06T06:37:27.645Z,100.00
2023-05-06T06:40:29.107Z,100.00
2023-05-06T06:43:30.681Z,100.00
2023-05-06T06:46:36.918Z,100.00
2023-05-06T06:49:39.385Z,100.00
2023-05-06T06:52:40.897Z,97.00
2023-05-06T06:55:43.840Z,94.33
2023-05-06T06:58:45.398Z,95.03
2023-05-06T07:01:46.940Z,93.89
2023-05-06T07:04:49.143Z,93.42
2023-05-06T07:07:50.644Z,92.69
2023-05-06T07:10:52.252Z,92.29
2023-05-06T07:13:53.722Z,92.13
2023-05-06T07:16:55.924Z,92.39
2023-05-06T07:19:57.335Z,91.02
2023-05-06T07:22:58.899Z,91.16
2023-05-06T07:26:00.458Z,91.18
2023-05-06T07:29:02.047Z,91.34
2023-05-06T07:32:03.877Z,89.86
2023-05-06T07:35:05.676Z,89.18
2023-05-06T07:38:07.146Z,88.74
2023-05-06T07:41:08.634Z,88.91
2023-05-06T07:44:10.169Z,87.86
2023-05-06T07:47:11.737Z,86.37
2023-05-06T07:50:13.378Z,87.77
2023-05-06T07:53:14.828Z,85.43
2023-05-06T07:56:17.244Z,83.12
2023-05-06T07:59:18.887Z,83.42
2023-05-06T08:02:20.497Z,83.88
2023-05-06T08:05:22.040Z,85.79
2023-05-06T08:08:23.899Z,86.99
2023-05-06T08:11:25.465Z,86.42
2023-05-06T08:14:27.071Z,83.46
2023-05-06T08:17:28.645Z,82.31
2023-05-06T08:20:30.241Z,81.59
2023-05-06T08:23:32.251Z,81.94
2023-05-06T08:26:33.770Z,83.50
2023-05-06T08:29:35.310Z,84.59
2023-05-06T08:32:36.885Z,83.59
2023-05-06T08:35:38.382Z,80.35
2023-05-06T08:38:39.912Z,76.63
2023-05-06T08:41:45.032Z,75.02
2023-05-06T08:44:47.261Z,73.88
2023-05-06T08:47:49.037Z,73.54
2023-05-06T08:50:51.046Z,73.96
2023-05-06T08:53:54.710Z,74.03
2023-05-06T08:56:58.762Z,74.94
2023-05-06T09:00:00.837Z,76.37
2023-05-06T09:03:02.494Z,76.92
2023-05-06T09:06:04.744Z,75.99
2023-05-06T09:09:06.404Z,74.62
2023-05-06T09:12:14.876Z,73.60
2023-05-06T09:15:16.484Z,73.35
2023-05-06T09:18:17.951Z,72.89
2023-05-06T09:21:19.440Z,72.73
2023-05-06T09:24:21.198Z,72.86
2023-05-06T09:27:34.956Z,73.12
2023-05-06T09:30:44.858Z,73.32
2023-05-06T09:33:46.451Z,73.45
2023-05-06T09:36:47.930Z,73.29
2023-05-06T09:39:57.659Z,72.07
2023-05-06T09:43:00.256Z,71.45
2023-05-06T09:46:02.222Z,71.28
2023-05-06T09:49:03.928Z,71.28
2023-05-06T09:52:07.393Z,70.58
2023-05-06T09:55:10.989Z,69.23
2023-05-06T09:58:13.236Z,67.65
2023-05-06T10:01:25.154Z,67.17
2023-05-06T10:04:37.092Z,65.90
2023-05-06T10:07:40.805Z,65.69
2023-05-06T10:10:43.066Z,66.10
2023-05-06T10:13:45.478Z,65.78
2023-05-06T10:16:48.744Z,65.09
2023-05-06T10:19:55.367Z,64.47
2023-05-06T10:23:05.819Z,65.03
2023-05-06T10:26:11.430Z,65.40
2023-05-06T10:29:13.553Z,65.01
2023-05-06T10:32:17.977Z,64.65
2023-05-06T10:35:26.179Z,63.95
2023-05-06T10:38:42.413Z,63.66
2023-05-06T10:41:43.986Z,62.85
2023-05-06T10:44:58.564Z,61.39
2023-05-06T10:48:02.900Z,61.30
2023-05-06T10:51:16.547Z,61.72
2023-05-06T10:54:19.231Z,62.13
2023-05-06T10:57:26.544Z,62.33
2023-05-06T11:00:34.767Z,61.72
2023-05-06T11:03:36.403Z,61.43
2023-05-06T11:06:46.203Z,60.25
2023-05-06T11:10:08.205Z,60.24
2023-05-06T11:13:27.803Z,60.46
2023-05-06T11:16:51.610Z,59.34
2023-05-06T11:20:19.695Z,59.75
2023-05-06T11:23:21.152Z,59.02
2023-05-06T11:26:24.389Z,58.89
2023-05-06T11:29:26.819Z,58.96
2023-05-06T11:32:29.374Z,58.89
2023-05-06T11:35:37.875Z,58.33
2023-05-06T11:38:46.437Z,58.47
2023-05-06T11:41:47.973Z,58.19
2023-05-06T11:44:49.499Z,57.36
2023-05-06T11:47:54.458Z,56.54
2023-05-06T11:50:55.956Z,56.17
2023-05-06T11:54:06.324Z,55.60
2023-05-06T11:57:08.809Z,55.82
2023-05-06T12:00:11.872Z,54.44
2023-05-06T12:03:16.583Z,54.22
2023-05-06T12:06:19.115Z,54.21
2023-05-06T12:09:22.304Z,53.73
2023-05-06T12:12:24.513Z,53.14
2023-05-06T12:15:26.575Z,53.05
2023-05-06T12:18:28.464Z,52.62
2023-05-06T12:21:30.602Z,51.69
2023-05-06T12:24:32.090Z,51.91
2023-05-06T12:27:35.658Z,51.74
2023-05-06T12:30:37.255Z,51.06
2023-05-06T12:33:51.630Z,50.65
2023-05-06T12:36:53.215Z,49.99
2023-05-06T12:39:58.438Z,49.42
2023-05-06T12:43:00.881Z,48.92
2023-05-06T12:46:07.183Z,48.90
2023-05-06T12:49:08.792Z,47.97
2023-05-06T12:52:10.793Z,48.03
2023-05-06T12:55:13.119Z,47.62
2023-05-06T12:58:16.662Z,47.34
2023-05-06T13:01:18.859Z,46.65
2023-05-06T13:04:21.257Z,45.39
2023-05-06T13:07:22.838Z,45.60
2023-05-06T13:10:24.393Z,45.66
2023-05-06T13:13:26.060Z,46.24
2023-05-06T13:16:29.565Z,45.64
2023-05-06T13:19:33.202Z,45.31
2023-05-06T13:22:46.971Z,44.78
2023-05-06T13:26:04.123Z,44.66
2023-05-06T13:29:06.971Z,44.10
2023-05-06T13:32:09.088Z,44.18
2023-05-06T13:35:11.078Z,44.66
2023-05-06T13:38:12.765Z,45.41
2023-05-06T13:41:14.199Z,45.19
2023-05-06T13:44:19.309Z,44.77
2023-05-06T13:47:20.987Z,44.70
2023-05-06T13:50:22.450Z,43.63
2023-05-06T13:53:23.909Z,43.77
2023-05-06T13:56:25.662Z,44.39
2023-05-06T13:59:27.160Z,43.56
2023-05-06T14:02:29.351Z,43.62
2023-05-06T14:05:30.949Z,43.93
2023-05-06T14:08:32.947Z,42.75
2023-05-06T14:11:34.453Z,43.47
2023-05-06T14:14:35.942Z,43.73
2023-05-06T14:17:38.248Z,42.53
2023-05-06T14:20:39.809Z,41.69
2023-05-06T14:23:41.276Z,41.46
2023-05-06T14:26:42.788Z,41.40
2023-05-06T14:29:46.044Z,41.53
2023-05-06T14:32:47.591Z,41.07
2023-05-06T14:35:51.955Z,41.06
2023-05-06T14:38:53.356Z,41.07
2023-05-06T14:41:54.859Z,40.96
2023-05-06T14:44:56.797Z,40.94
2023-05-06T14:47:58.370Z,41.66
2023-05-06T14:50:59.901Z,42.06
2023-05-06T14:54:01.451Z,41.98
2023-05-06T14:57:03.492Z,41.80
2023-05-06T15:00:10.050Z,41.81
2023-05-06T15:03:11.683Z,41.34
2023-05-06T15:06:13.195Z,41.71
2023-05-06T15:09:14.682Z,41.71
2023-05-06T15:12:16.258Z,41.31
2023-05-06T15:15:17.748Z,41.27
2023-05-06T15:18:19.226Z,41.46
2023-05-06T15:21:20.750Z,41.81
2023-05-06T15:24:22.986Z,41.94
2023-05-06T15:27:24.463Z,41.99
2023-05-06T15:30:25.949Z,42.38
2023-05-06T15:33:27.638Z,42.49
2023-05-06T15:36:29.075Z,42.29
2023-05-06T15:39:37.554Z,42.68
2023-05-06T15:42:40.006Z,43.45
2023-05-06T15:45:41.494Z,44.13
2023-05-06T15:48:43.131Z,44.91
2023-05-06T15:51:44.669Z,45.73
2023-05-06T15:54:49.555Z,45.63
2023-05-06T15:57:53.562Z,45.93
2023-05-06T16:00:55.081Z,45.53
2023-05-06T16:03:56.752Z,45.64
2023-05-06T16:06:58.414Z,45.17
2023-05-06T16:09:59.885Z,44.98
2023-05-06T16:13:01.376Z,45.14
2023-05-06T16:16:03.065Z,45.49
2023-05-06T16:19:04.764Z,44.77
2023-05-06T16:22:06.428Z,44.24
2023-05-06T16:25:08.272Z,44.15
2023-05-06T16:28:09.896Z,43.50
2023-05-06T16:31:11.531Z,42.88
2023-05-06T16:34:13.155Z,40.91
2023-05-06T16:37:15.563Z,39.15
2023-05-06T16:40:18.967Z,38.11
2023-05-06T16:43:20.652Z,38.15
2023-05-06T16:46:24.229Z,40.05
2023-05-06T16:49:28.007Z,41.61
2023-05-06T16:52:30.745Z,41.90
2023-05-06T16:55:32.536Z,43.17
2023-05-06T16:58:34.151Z,43.55
2023-05-06T17:01:35.700Z,43.81
2023-05-06T17:04:37.620Z,43.74
2023-05-06T17:07:39.135Z,43.83
2023-05-06T17:10:40.726Z,44.67
2023-05-06T17:13:42.188Z,46.01
2023-05-06T17:16:43.797Z,46.54
2023-05-06T17:19:45.370Z,47.28
2023-05-06T17:22:47.037Z,48.06
2023-05-06T17:25:48.676Z,48.25
2023-05-06T17:28:50.856Z,48.58
2023-05-06T17:31:52.378Z,48.37
2023-05-06T17:34:53.899Z,48.16
2023-05-06T17:37:55.985Z,48.13
2023-05-06T17:40:57.541Z,49.04
2023-05-06T17:43:59.412Z,50.63
2023-05-06T17:47:01.226Z,51.55
2023-05-06T17:50:03.179Z,52.25
2023-05-06T17:53:04.677Z,53.71
2023-05-06T17:56:06.403Z,54.80
2023-05-06T17:59:07.929Z,55.86
2023-05-06T18:02:13.810Z,56.84
2023-05-06T18:05:16.565Z,57.98
2023-05-06T18:08:18.244Z,58.27
2023-05-06T18:11:19.739Z,58.84
2023-05-06T18:14:21.233Z,60.64
2023-05-06T18:17:22.718Z,62.91
2023-05-06T18:20:24.222Z,64.51
2023-05-06T18:23:26.354Z,65.89
2023-05-06T18:26:44.728Z,66.79
2023-05-06T18:29:47.754Z,67.18
2023-05-06T18:32:51.015Z,68.21
2023-05-06T18:35:53.515Z,69.16
2023-05-06T18:38:54.987Z,70.01
2023-05-06T18:41:56.526Z,71.16
2023-05-06T18:44:58.090Z,72.54
2023-05-06T18:47:59.765Z,74.53
2023-05-06T18:51:16.951Z,76.11
2023-05-06T18:54:21.772Z,77.21
2023-05-06T18:57:24.311Z,78.24
2023-05-06T19:00:26.360Z,79.10
2023-05-06T19:03:28.368Z,80.37
2023-05-06T19:06:31.520Z,80.89
2023-05-06T19:09:36.837Z,81.68
2023-05-06T19:12:38.430Z,82.53
2023-05-06T19:15:39.946Z,83.19
2023-05-06T19:18:41.533Z,83.30
2023-05-06T19:21:42.926Z,83.25
2023-05-06T19:24:44.582Z,83.75
2023-05-06T19:27:46.204Z,84.49
2023-05-06T19:30:48.595Z,84.98
2023-05-06T19:33:50.362Z,86.36
2023-05-06T19:36:51.853Z,86.64
2023-05-06T19:39:53.253Z,87.00
2023-05-06T19:42:54.916Z,86.36
2023-05-06T19:45:56.654Z,86.86
2023-05-06T19:48:58.368Z,86.87
2023-05-06T19:51:59.848Z,87.18
2023-05-06T19:55:03.856Z,88.38
2023-05-06T19:58:05.346Z,88.43
2023-05-06T20:01:06.919Z,88.45
2023-05-06T20:04:09.664Z,88.69
2023-05-06T20:07:12.764Z,89.44
2023-05-06T20:10:14.549Z,89.92
2023-05-06T20:13:17.720Z,90.58
2023-05-06T20:16:19.335Z,91.18
2023-05-06T20:19:29.119Z,91.35
2023-05-06T20:22:32.276Z,92.15
2023-05-06T20:25:36.784Z,93.26
2023-05-06T20:28:39.145Z,93.89
2023-05-06T20:31:40.793Z,95.00
2023-05-06T20:34:42.979Z,94.13
2023-05-06T20:37:44.729Z,94.21
2023-05-06T20:40:47.369Z,94.76
2023-05-06T20:43:52.752Z,95.28
2023-05-06T20:46:54.274Z,95.40
2023-05-06T20:49:55.725Z,95.42
2023-05-06T20:52:57.174Z,95.99
2023-05-06T20:55:58.630Z,96.24
2023-05-06T20:59:00.145Z,97.17
2023-05-06T21:02:01.916Z,97.37
2023-05-06T21:05:03.658Z,98.17
2023-05-06T21:08:05.069Z,98.51
2023-05-06T21:11:06.878Z,99.19
2023-05-06T21:14:08.629Z,99.39
2023-05-06T21:17:10.521Z,98.48
2023-05-06T21:20:12.563Z,99.29
2023-05-06T21:23:14.341Z,100.00
2023-05-06T21:26:15.954Z,100.00
2023-05-06T21:29:17.366Z,100.00
2023-05-06T21:32:18.968Z,100.00
2023-05-06T21:35:20.683Z,100.00
2023-05-06T21:38:22.155Z,100.00
2023-05-06T21:41:23.580Z,100.00
2023-05-06T21:44:25.124Z,100.00
2023-05-06T21:47:26.651Z,100.00
2023-05-06T21:50:28.256Z,100.00
2023-05-06T21:53:29.750Z,100.00
2023-05-06T21:56:31.217Z,100.00
2023-05-06T21:59:32.633Z,100.00
2023-05-06T22:02:34.166Z,100.00
2023-05-06T22:05:35.704Z,100.00
2023-05-06T22:08:37.244Z,100.00
2023-05-06T22:11:38.851Z,100.00
2023-05-06T22:14:41.787Z,100.00
2023-05-06T22:17:43.508Z,100.00
2023-05-06T22:20:46.603Z,100.00
2023-05-06T22:23:48.072Z,100.00
2023-05-06T22:26:49.734Z,100.00
2023-05-06T22:29:51.297Z,100.00
2023-05-06T22:32:52.889Z,100.00
2023-05-06T22:35:55.367Z,100.00
2023-05-06T22:38:56.881Z,100.00
2023-05-06T22:41:58.371Z,100.00
2023-05-06T22:44:59.868Z,100.00
2023-05-06T22:48:01.456Z,100.00
2023-05-06T22:51:02.977Z,100.00
2023-05-06T22:54:04.848Z,100.00
2023-05-06T22:57:06.591Z,100.00
2023-05-06T23:00:08.767Z,100.00
2023-05-06T23:03:10.633Z,100.00
2023-05-06T23:06:12.203Z,100.00
2023-05-06T23:09:13.643Z,100.00
2023-05-06T23:12:15.129Z,100.00
2023-05-06T23:15:16.613Z,100.00
2023-05-06T23:18:18.995Z,100.00
2023-05-06T23:21:20.503Z,100.00
2023-05-06T23:24:22.040Z,100.00
2023-05-06T23:27:23.487Z,100.00
2023-05-06T23:30:24.925Z,100.00
2023-05-06T23:33:26.731Z,100.00
2023-05-06T23:36:28.298Z,100.00
2023-05-06T23:39:29.760Z,100.00
2023-05-06T23:42:31.232Z,100.00
2023-05-06T23:45:32.731Z,100.00
2023-05-06T23:48:34.664Z,100.00
2023-05-06T23:51:36.182Z,100.00
2023-05-06T23:54:37.645Z,100.00
2023-05-06T23:57:39.149Z,100.00
